createdAt,value
2019-01-10T00:02:03.480Z,3.50
2019-01-10T00:06:06.891Z,3.50
2019-01-10T00:10:14.037Z,3.40
2019-01-10T00:14:17.823Z,3.40
2019-01-10T00:18:21.251Z,3.50
2019-01-10T00:22:24.679Z,3.50
2019-01-10T00:26:28.091Z,3.50
2019-01-10T00:30:31.511Z,3.40
2019-01-10T00:34:34.937Z,3.40
2019-01-10T00:38:38.352Z,3.40
2019-01-10T00:42:49.043Z,3.40
2019-01-10T00:46:47.079Z,3.40
2019-01-10T00:50:50.515Z,3.40
2019-01-10T00:54:53.941Z,3.50
2019-01-10T00:58:57.359Z,3.40
2019-01-10T01:03:00.776Z,3.50
2019-01-10T01:07:04.668Z,3.50
2019-01-10T01:11:08.107Z,3.50
2019-01-10T01:15:14.071Z,3.50
2019-01-10T01:19:17.487Z,3.50
2019-01-10T01:23:20.901Z,3.50
2019-01-10T01:27:26.982Z,3.50
2019-01-10T01:31:30.405Z,3.50
2019-01-10T01:35:34.064Z,3.40
2019-01-10T01:39:37.523Z,3.50
2019-01-10T01:43:41.158Z,3.50
2019-01-10T01:47:44.752Z,3.50
2019-01-10T01:51:48.207Z,3.50
2019-01-10T01:55:51.762Z,3.40
2019-01-10T01:59:55.192Z,3.40
2019-01-10T02:03:58.714Z,3.40
2019-01-10T02:08:02.259Z,3.40
2019-01-10T02:12:05.847Z,3.40
2019-01-10T02:16:10.859Z,3.40
2019-01-10T02:20:15.914Z,3.40
2019-01-10T02:24:19.493Z,3.40
2019-01-10T02:28:22.988Z,3.40
2019-01-10T02:32:26.479Z,3.40
2019-01-10T02:36:30.091Z,3.40
2019-01-10T02:40:33.543Z,3.50
2019-01-10T02:44:37.046Z,3.40
2019-01-10T02:48:40.471Z,3.30
2019-01-10T02:52:43.886Z,3.30
2019-01-10T02:56:47.295Z,3.40
2019-01-10T03:00:50.723Z,3.40
2019-01-10T03:04:54.151Z,3.40
2019-01-10T03:08:57.585Z,3.30
2019-01-10T03:13:01.003Z,3.30
2019-01-10T03:17:04.415Z,3.30
2019-01-10T03:21:07.845Z,3.30
2019-01-10T03:25:11.274Z,3.30
2019-01-10T03:29:14.700Z,3.30
2019-01-10T03:33:18.125Z,3.30
2019-01-10T03:37:21.564Z,3.40
2019-01-10T03:41:24.982Z,3.40
2019-01-10T03:45:28.403Z,3.50
2019-01-10T03:49:31.833Z,3.50
2019-01-10T03:53:35.315Z,3.50
2019-01-10T03:57:38.759Z,3.50
2019-01-10T04:01:42.254Z,3.50
2019-01-10T04:05:45.679Z,3.60
2019-01-10T04:09:49.108Z,3.60
2019-01-10T04:13:57.594Z,3.50
2019-01-10T04:17:57.853Z,3.40
2019-01-10T04:22:01.278Z,3.50
2019-01-10T04:26:04.695Z,3.50
2019-01-10T04:30:16.916Z,3.40
2019-01-10T04:34:20.326Z,3.50
2019-01-10T04:38:23.758Z,3.50
2019-01-10T04:42:27.180Z,3.50
2019-01-10T04:46:32.044Z,3.50
2019-01-10T04:50:35.491Z,3.60
2019-01-10T04:54:38.904Z,3.60
2019-01-10T04:58:42.346Z,3.60
2019-01-10T05:02:45.773Z,3.60
2019-01-10T05:06:49.201Z,3.70
2019-01-10T05:10:52.616Z,3.70
2019-01-10T05:14:56.035Z,3.70
2019-01-10T05:18:59.468Z,3.80
2019-01-10T05:23:02.898Z,3.90
2019-01-10T05:27:06.513Z,3.90
2019-01-10T05:31:09.919Z,4.00
2019-01-10T05:35:13.359Z,3.90
2019-01-10T05:39:16.774Z,3.90
2019-01-10T05:43:20.206Z,3.90
2019-01-10T05:47:23.623Z,3.90
2019-01-10T05:51:27.064Z,3.90
2019-01-10T05:55:30.487Z,3.90
2019-01-10T05:59:33.925Z,3.80
2019-01-10T06:03:37.342Z,3.90
2019-01-10T06:07:40.749Z,3.90
2019-01-10T06:11:44.167Z,3.90
2019-01-10T06:15:47.599Z,3.90
2019-01-10T06:19:51.019Z,3.80
2019-01-10T06:23:54.444Z,3.80
2019-01-10T06:27:57.850Z,3.90
2019-01-10T06:32:01.284Z,3.90
2019-01-10T06:36:04.783Z,3.90
2019-01-10T06:40:11.212Z,3.90
2019-01-10T06:44:14.618Z,3.90
2019-01-10T06:48:18.044Z,3.80
2019-01-10T06:52:21.483Z,3.80
2019-01-10T06:56:26.552Z,3.80
2019-01-10T07:00:29.973Z,3.80
2019-01-10T07:04:33.383Z,3.80
2019-01-10T07:08:36.839Z,3.70
2019-01-10T07:12:40.264Z,3.70
2019-01-10T07:16:43.683Z,3.70
2019-01-10T07:20:47.115Z,3.70
2019-01-10T07:24:51.579Z,3.80
2019-01-10T07:28:54.998Z,3.80
2019-01-10T07:32:58.425Z,3.80
2019-01-10T07:37:01.871Z,3.70
2019-01-10T07:41:05.295Z,3.80
2019-01-10T07:45:14.793Z,3.70
2019-01-10T07:49:21.773Z,3.80
2019-01-10T07:53:25.201Z,3.70
2019-01-10T07:57:28.619Z,3.70
2019-01-10T08:01:51.403Z,3.70
2019-01-10T08:05:54.804Z,3.70
2019-01-10T08:09:58.269Z,3.80
2019-01-10T08:14:01.730Z,3.90
2019-01-10T08:18:05.626Z,3.90
2019-01-10T08:22:09.035Z,3.90
2019-01-10T08:26:12.456Z,3.90
2019-01-10T08:30:21.372Z,4.00
2019-01-10T08:34:24.796Z,3.90
2019-01-10T08:38:28.219Z,3.90
2019-01-10T08:42:31.643Z,4.00
2019-01-10T08:46:35.063Z,4.10
2019-01-10T08:50:38.535Z,4.20
2019-01-10T08:54:41.968Z,4.30
2019-01-10T08:58:45.383Z,4.30
2019-01-10T09:02:48.880Z,4.40
2019-01-10T09:06:52.308Z,4.40
2019-01-10T09:10:55.816Z,4.40
2019-01-10T09:14:59.247Z,4.40
2019-01-10T09:19:02.671Z,4.40
2019-01-10T09:23:06.086Z,4.50
2019-01-10T09:27:09.510Z,4.50
2019-01-10T09:31:12.943Z,4.40
2019-01-10T09:35:16.540Z,4.30
2019-01-10T09:39:19.947Z,4.40
2019-01-10T09:43:23.371Z,4.40
2019-01-10T09:47:26.875Z,4.40
2019-01-10T09:51:30.378Z,4.40
2019-01-10T09:55:33.800Z,4.30
2019-01-10T09:59:37.215Z,4.30
2019-01-10T10:03:40.653Z,4.30
2019-01-10T10:07:44.082Z,4.30
2019-01-10T10:11:47.512Z,4.20
2019-01-10T10:15:52.819Z,4.20
2019-01-10T10:19:56.083Z,4.20
2019-01-10T10:23:59.516Z,4.20
2019-01-10T10:28:03.071Z,4.30
2019-01-10T10:32:06.515Z,4.40
2019-01-10T10:36:09.983Z,4.60
2019-01-10T10:40:18.204Z,4.60
2019-01-10T10:44:21.623Z,4.70
2019-01-10T10:48:25.047Z,4.80
2019-01-10T10:52:28.471Z,4.70
2019-01-10T10:56:31.882Z,4.70
2019-01-10T11:00:35.382Z,4.80
2019-01-10T11:04:38.812Z,4.70
2019-01-10T11:08:42.238Z,4.70
2019-01-10T11:12:45.674Z,4.70
2019-01-10T11:16:49.079Z,4.70
2019-01-10T11:20:52.504Z,4.70
2019-01-10T11:24:55.940Z,4.60
2019-01-10T11:28:59.380Z,4.60
2019-01-10T11:33:02.805Z,4.50
2019-01-10T11:37:06.328Z,4.60
2019-01-10T11:41:09.752Z,4.60
2019-01-10T11:45:16.421Z,4.70
2019-01-10T11:49:19.842Z,4.70
2019-01-10T11:53:23.263Z,4.70
2019-01-10T11:57:26.901Z,4.60
2019-01-10T12:01:30.410Z,4.70
2019-01-10T12:05:33.844Z,4.70
2019-01-10T12:09:37.267Z,4.60
2019-01-10T12:13:40.679Z,4.50
2019-01-10T12:17:44.648Z,4.50
2019-01-10T12:21:48.103Z,4.30
2019-01-10T12:25:51.527Z,4.30
2019-01-10T12:29:54.992Z,4.30
2019-01-10T12:33:58.392Z,4.30
2019-01-10T12:38:01.821Z,4.30
2019-01-10T12:42:05.320Z,4.20
2019-01-10T12:46:08.755Z,4.30
2019-01-10T12:50:15.239Z,4.30
2019-01-10T12:54:18.672Z,4.30
2019-01-10T12:58:22.090Z,4.40
2019-01-10T13:02:25.521Z,4.40
2019-01-10T13:06:28.953Z,4.50
2019-01-10T13:10:32.457Z,4.50
2019-01-10T13:14:35.881Z,4.40
2019-01-10T13:18:39.307Z,4.30
2019-01-10T13:22:42.799Z,4.30
2019-01-10T13:26:46.219Z,4.30
2019-01-10T13:30:49.656Z,4.30
2019-01-10T13:34:53.086Z,4.50
2019-01-10T13:38:56.503Z,4.40
2019-01-10T13:43:00.001Z,4.40
2019-01-10T13:47:03.791Z,4.30
2019-01-10T13:51:07.211Z,4.30
2019-01-10T13:55:13.188Z,4.30
2019-01-10T13:59:17.086Z,4.20
2019-01-10T14:03:20.532Z,4.20
2019-01-10T14:07:23.946Z,4.20
2019-01-10T14:11:27.369Z,4.10
2019-01-10T14:15:31.847Z,4.10
2019-01-10T14:19:35.274Z,4.10
2019-01-10T14:23:38.689Z,4.10
2019-01-10T14:27:42.195Z,4.10
2019-01-10T14:31:45.708Z,4.10
2019-01-10T14:35:49.137Z,4.00
2019-01-10T14:39:52.572Z,4.00
2019-01-10T14:43:56.050Z,4.00
2019-01-10T14:48:01.906Z,4.00
2019-01-10T14:52:04.984Z,4.00
2019-01-10T14:56:08.405Z,4.00
2019-01-10T15:00:23.287Z,4.00
2019-01-10T15:04:26.705Z,4.00
2019-01-10T15:08:30.167Z,4.10
2019-01-10T15:12:33.597Z,4.10
2019-01-10T15:16:37.015Z,4.00
2019-01-10T15:20:40.433Z,4.00
2019-01-10T15:24:43.861Z,4.00
2019-01-10T15:28:47.688Z,4.00
2019-01-10T15:32:51.122Z,4.10
2019-01-10T15:36:54.557Z,4.10
2019-01-10T15:40:57.962Z,4.00
2019-01-10T15:45:01.426Z,4.20
2019-01-10T15:49:04.928Z,4.00
2019-01-10T15:53:08.383Z,4.00
2019-01-10T15:57:11.843Z,4.00
2019-01-10T16:01:15.272Z,4.00
2019-01-10T16:05:18.962Z,4.00
2019-01-10T16:09:22.384Z,3.90
2019-01-10T16:13:25.810Z,3.90
2019-01-10T16:17:29.210Z,3.90
2019-01-10T16:21:32.647Z,3.90
2019-01-10T16:25:36.075Z,3.90
2019-01-10T16:29:39.512Z,3.90
2019-01-10T16:33:42.919Z,3.80
2019-01-10T16:37:46.349Z,3.80
2019-01-10T16:41:49.769Z,3.90
2019-01-10T16:45:53.196Z,4.00
2019-01-10T16:49:57.888Z,4.00
2019-01-10T16:54:01.611Z,4.00
2019-01-10T16:58:05.483Z,4.00
2019-01-10T17:02:08.903Z,4.00
2019-01-10T17:06:12.343Z,4.00
2019-01-10T17:10:16.496Z,3.90
2019-01-10T17:14:19.927Z,3.90
2019-01-10T17:18:23.346Z,3.90
2019-01-10T17:22:26.774Z,4.00
2019-01-10T17:26:30.199Z,3.90
2019-01-10T17:30:33.611Z,3.90
2019-01-10T17:34:37.035Z,3.90
2019-01-10T17:38:40.535Z,3.90
2019-01-10T17:42:44.354Z,3.90
2019-01-10T17:46:47.787Z,3.90
2019-01-10T17:50:51.207Z,3.80
2019-01-10T17:54:54.634Z,3.80
2019-01-10T17:58:58.063Z,3.80
2019-01-10T18:03:01.490Z,3.80
2019-01-10T18:07:04.900Z,3.80
2019-01-10T18:11:08.327Z,3.90
2019-01-10T18:15:14.403Z,3.80
2019-01-10T18:19:17.832Z,3.80
2019-01-10T18:23:21.335Z,3.70
2019-01-10T18:27:24.758Z,3.60
2019-01-10T18:31:28.185Z,3.70
2019-01-10T18:35:31.891Z,3.70
2019-01-10T18:39:35.316Z,3.60
2019-01-10T18:43:38.724Z,3.60
2019-01-10T18:47:43.005Z,3.60
2019-01-10T18:51:46.431Z,3.60
2019-01-10T18:55:49.863Z,3.60
2019-01-10T18:59:53.282Z,3.60
2019-01-10T19:03:56.703Z,3.60
2019-01-10T19:08:00.135Z,3.50
2019-01-10T19:12:03.555Z,3.50
2019-01-10T19:16:06.980Z,3.50
2019-01-10T19:20:18.931Z,3.40
2019-01-10T19:24:22.347Z,3.40
2019-01-10T19:28:25.780Z,3.40
2019-01-10T19:32:29.204Z,3.40
2019-01-10T19:36:32.688Z,3.40
2019-01-10T19:40:36.136Z,3.40
2019-01-10T19:44:39.542Z,3.30
2019-01-10T19:48:42.983Z,3.30
2019-01-10T19:52:47.771Z,3.30
2019-01-10T19:56:51.520Z,3.30
2019-01-10T20:00:55.003Z,3.20
2019-01-10T20:04:58.443Z,3.20
2019-01-10T20:09:01.891Z,3.10
2019-01-10T20:13:05.388Z,3.00
2019-01-10T20:17:08.825Z,3.00
2019-01-10T20:21:12.231Z,2.90
2019-01-10T20:25:15.658Z,2.90
2019-01-10T20:29:20.657Z,3.00
2019-01-10T20:33:24.079Z,3.10
2019-01-10T20:37:27.522Z,3.10
2019-01-10T20:41:31.023Z,3.10
2019-01-10T20:45:34.445Z,3.00
2019-01-10T20:49:37.871Z,3.00
2019-01-10T20:53:41.312Z,2.90
2019-01-10T20:57:44.929Z,2.90
2019-01-10T21:01:48.364Z,2.90
2019-01-10T21:05:51.791Z,2.90
2019-01-10T21:09:55.230Z,2.90
2019-01-10T21:13:58.698Z,2.80
2019-01-10T21:18:02.133Z,2.80
2019-01-10T21:22:05.561Z,2.80
2019-01-10T21:26:08.970Z,2.70
2019-01-10T21:30:15.810Z,2.70
2019-01-10T21:34:19.218Z,2.70
2019-01-10T21:38:22.711Z,2.70
2019-01-10T21:42:26.167Z,2.80
2019-01-10T21:46:29.594Z,2.80
2019-01-10T21:50:33.019Z,2.80
2019-01-10T21:54:38.069Z,2.80
2019-01-10T21:58:41.500Z,2.80
2019-01-10T22:02:44.923Z,2.80
2019-01-10T22:06:48.342Z,2.80
2019-01-10T22:10:51.776Z,2.80
2019-01-10T22:14:55.212Z,2.70
2019-01-10T22:18:58.813Z,2.70
2019-01-10T22:23:02.335Z,2.70
2019-01-10T22:27:05.828Z,2.80
2019-01-10T22:31:09.250Z,2.80
2019-01-10T22:35:15.383Z,2.80
2019-01-10T22:39:18.807Z,2.80
2019-01-10T22:43:41.577Z,2.80
2019-01-10T22:47:44.998Z,2.80
2019-01-10T22:51:48.627Z,2.80
2019-01-10T22:55:52.158Z,2.80
2019-01-10T22:59:55.598Z,2.80
2019-01-10T23:03:59.173Z,2.70
2019-01-10T23:08:02.667Z,2.70
2019-01-10T23:12:06.997Z,2.60
2019-01-10T23:16:10.440Z,2.70
2019-01-10T23:20:14.117Z,2.70
2019-01-10T23:24:17.793Z,2.70
2019-01-10T23:28:21.276Z,2.80
2019-01-10T23:32:24.793Z,2.80
2019-01-10T23:36:28.258Z,2.80
2019-01-10T23:40:31.714Z,2.80
2019-01-10T23:44:35.195Z,2.80
2019-01-10T23:48:38.607Z,2.80
2019-01-10T23:52:42.131Z,2.90
2019-01-10T23:56:45.636Z,2.80
